CDT,Max TemperatureF,Mean TemperatureF,Min TemperatureF,Max Dew PointF,MeanDew PointF,Min DewpointF,Max Humidity, Mean Humidity, Min Humidity, Max Sea Level PressureIn, Mean Sea Level PressureIn, Min Sea Level PressureIn, Max VisibilityMiles, Mean VisibilityMiles, Min VisibilityMiles, Max Wind SpeedMPH, Mean Wind SpeedMPH, Max Gust SpeedMPH,PrecipitationIn, CloudCover, Events, WindDirDegrees
2013-4-1,91,80,69,65,64,60,87,67,37,30.03,29.93,29.82,10,9,8,24,10,28,0.00,3,,121
2013-4-2,87,78,69,67,65,64,87,69,46,29.95,29.86,29.72,10,9,6,21,11,24,0.00,4,,136
2013-4-3,77,69,60,68,59,51,97,81,65,30.14,29.95,29.80,10,9,2,23,13,29,0.01,8,Rain,24
2013-4-4,80,65,49,49,43,39,83,52,26,30.21,30.14,30.06,10,10,10,16,8,20,0.00,0,,13
2013-4-5,83,66,49,48,44,40,74,46,24,30.26,30.14,30.00,10,10,10,25,10,31,0.00,0,,121
2013-4-6,89,75,61,61,57,47,81,59,35,30.04,29.94,29.80,10,10,10,25,14,29,0.00,3,,148
2013-4-7,92,78,64,63,61,59,90,61,34,29.90,29.79,29.68,10,10,10,24,14,29,0.00,0,,147
2013-4-8,99,86,72,67,63,52,79,58,21,29.77,29.66,29.53,10,10,7,28,14,32,0.00,4,,147
2013-4-9,108,91,74,69,59,31,82,51,8,29.66,29.56,29.43,10,9,7,28,15,32,0.00,3,,165
2013-4-10,77,71,65,70,53,42,79,53,35,29.89,29.73,29.53,10,9,6,30,17,37,0.00,5,,8
2013-4-11,82,68,54,45,40,37,64,40,20,29.98,29.86,29.73,10,10,10,20,9,24,T,1,Rain,75
2013-4-12,89,73,57,58,48,40,80,46,22,29.94,29.86,29.76,10,10,10,27,13,29,0.00,0,,140
2013-4-13,87,76,65,61,58,48,87,64,31,29.90,29.81,29.67,10,10,10,24,14,28,0.00,4,,132
2013-4-14,98,84,69,65,59,38,81,54,12,29.81,29.70,29.59,10,10,10,22,8,27,0.00,4,,161
2013-4-15,102,87,72,67,64,58,84,53,24,29.73,29.67,29.59,10,9,6,28,14,24,0.00,0,,157
2013-4-16,96,84,72,72,67,62,84,61,33,29.79,29.73,29.68,10,8,4,25,14,29,0.00,0,,136
2013-4-17,101,90,78,73,70,62,82,61,29,29.82,29.70,29.51,10,7,4,27,17,32,0.00,3,,155
2013-4-18,87,76,64,72,55,38,79,50,19,30.05,29.75,29.57,10,8,5,37,18,44,T,2,,69
2013-4-19,75,66,57,39,28,21,41,27,14,30.35,30.21,30.09,10,10,10,21,8,25,0.00,2,Rain,68
2013-4-20,82,67,52,47,34,23,50,30,19,30.19,30.08,29.93,10,10,10,25,14,31,0.00,0,,155
2013-4-21,90,75,60,59,53,48,75,53,27,30.08,30.01,29.91,10,10,10,24,13,29,0.00,0,,143
2013-4-22,92,80,67,64,61,58,84,62,33,30.09,29.98,29.83,10,10,10,20,12,23,0.00,4,,146
2013-4-23,92,82,72,68,65,63,76,61,42,29.95,29.82,29.73,10,10,8,25,14,29,0.00,6,,134
2013-4-24,78,65,51,70,49,39,86,67,47,30.25,30.12,29.92,10,10,8,29,14,35,0.01,7,Rain,11
2013-4-25,67,63,59,54,47,42,72,58,48,30.31,30.23,30.17,10,10,10,14,6,16,T,7,,64
2013-4-26,88,74,59,66,60,54,100,80,45,30.20,30.09,29.95,10,6,1,24,9,28,0.00,6,,153
2013-4-27,92,81,69,72,67,63,90,71,41,30.04,29.96,29.86,10,8,6,22,11,29,1.12,4,Thunderstorm,129
2013-4-28,77,71,65,70,65,60,93,83,58,30.00,29.94,29.86,10,6,2,32,9,37,0.59,4,Rain-Thunderstorm,127
2013-4-29,79,73,66,67,64,61,90,74,58,29.92,29.85,29.76,10,10,10,14,6,15,0.01,4,Rain,138
2013-4-30,94,82,69,70,67,61,97,75,33,29.83,29.76,29.65,10,10,7,22,8,26,T,4,,114